Time;durP1;ratioP1;P1;durP2;ratioP2;P2;SDS_P1;SDS_P2;PMS_P1;PMS_P2;Temp;Humidity;BMP_temperature;BMP_pressure;BME280_temperature;BME280_humidity;BME280_pressure;Samples;Min_cycle;Max_cycle;Signal;HPM_P1;HPM_P2
2024/01/10 00:00:23;;;;;;;2.53;1.43;;;1.20;99.90;;;;;;7394274;19;20168;-79
2024/01/10 00:02:49;;;;;;;1.93;1.23;;;1.20;99.90;;;;;;7394102;19;20156;-77
2024/01/10 00:05:15;;;;;;;0.87;0.83;;;1.20;99.90;;;;;;7395111;19;20178;-78
2024/01/10 00:07:40;;;;;;;2.60;1.73;;;1.20;99.90;;;;;;7397272;19;20238;-77
2024/01/10 00:10:07;;;;;;;1.43;1.17;;;1.10;99.90;;;;;;7391442;19;20142;-76
2024/01/10 00:12:36;;;;;;;1.03;0.97;;;1.10;99.90;;;;;;7398348;19;20198;-77
2024/01/10 00:15:05;;;;;;;1.07;0.83;;;1.20;99.90;;;;;;7394201;19;20150;-78
2024/01/10 00:17:31;;;;;;;2.00;1.10;;;1.10;99.90;;;;;;7397812;19;20579;-76
2024/01/10 00:19:57;;;;;;;1.27;1.23;;;1.30;99.90;;;;;;7395568;19;20130;-78
2024/01/10 00:22:23;;;;;;;1.30;1.17;;;1.20;99.90;;;;;;7394550;19;20198;-77
2024/01/10 00:24:49;;;;;;;2.23;2.07;;;1.20;99.90;;;;;;7395121;19;20439;-76
2024/01/10 00:27:15;;;;;;;1.03;0.93;;;1.10;99.90;;;;;;7397357;19;20131;-77
2024/01/10 00:29:41;;;;;;;0.80;0.80;;;1.10;99.90;;;;;;7394188;19;20202;-78
2024/01/10 00:32:07;;;;;;;1.50;1.40;;;0.90;99.90;;;;;;7397051;19;20147;-77
2024/01/10 00:34:32;;;;;;;0.80;0.70;;;1.10;99.90;;;;;;7393871;19;20153;-77
2024/01/10 00:36:58;;;;;;;1.83;1.67;;;1.10;99.90;;;;;;7395068;19;20210;-77
2024/01/10 00:39:24;;;;;;;1.07;1.07;;;1.10;99.90;;;;;;7395015;19;20145;-76
2024/01/10 00:41:50;;;;;;;2.00;1.77;;;1.00;99.90;;;;;;7393307;19;20901;-76
2024/01/10 00:44:16;;;;;;;2.13;1.40;;;1.00;99.90;;;;;;7393243;19;20157;-77
2024/01/10 00:46:42;;;;;;;1.73;1.37;;;0.90;99.90;;;;;;7393134;19;20531;-77
2024/01/10 00:49:08;;;;;;;1.30;1.17;;;1.00;99.90;;;;;;7391137;19;20647;-78
2024/01/10 00:51:34;;;;;;;2.43;1.83;;;1.10;99.90;;;;;;7392044;19;20132;-78
2024/01/10 00:53:59;;;;;;;1.97;1.33;;;1.10;99.90;;;;;;7396101;19;20130;-76
2024/01/10 00:56:25;;;;;;;0.73;0.60;;;1.10;99.90;;;;;;7392219;19;20147;-76
2024/01/10 00:58:51;;;;;;;0.67;0.67;;;1.10;99.90;;;;;;7392800;19;20218;-77
2024/01/10 01:01:17;;;;;;;1.93;1.07;;;1.10;99.90;;;;;;7390718;19;20142;-76
2024/01/10 01:03:42;;;;;;;1.23;1.00;;;1.10;99.90;;;;;;7393092;19;20151;-77
2024/01/10 01:06:08;;;;;;;2.23;2.03;;;1.10;99.90;;;;;;7392999;19;20161;-77
2024/01/10 01:08:34;;;;;;;2.13;1.10;;;0.90;99.90;;;;;;7393765;19;20485;-77
2024/01/10 01:11:00;;;;;;;0.90;0.90;;;0.90;99.90;;;;;;7389779;19;20147;-76
2024/01/10 01:13:26;;;;;;;2.33;1.23;;;0.80;99.90;;;;;;7394159;19;20564;-77
2024/01/10 01:15:51;;;;;;;1.10;1.07;;;0.70;99.90;;;;;;7394435;19;20154;-76
2024/01/10 01:18:19;;;;;;;1.50;1.33;;;0.80;99.90;;;;;;7391127;19;20143;-77
2024/01/10 01:20:45;;;;;;;2.00;1.37;;;0.90;99.90;;;;;;7392591;19;20177;-78
2024/01/10 01:23:10;;;;;;;1.77;1.30;;;1.10;99.90;;;;;;7388323;19;20142;-77
2024/01/10 01:25:36;;;;;;;0.73;0.73;;;1.00;99.90;;;;;;7393838;19;20562;-76
2024/01/10 01:28:02;;;;;;;1.17;1.10;;;0.90;99.90;;;;;;7392560;19;20464;-76
2024/01/10 01:30:28;;;;;;;1.80;1.03;;;0.60;99.90;;;;;;7391176;19;20138;-77
2024/01/10 01:32:53;;;;;;;1.13;0.80;;;0.90;99.90;;;;;;7393598;19;20153;-77
2024/01/10 01:35:22;;;;;;;2.13;1.93;;;1.00;99.90;;;;;;7391825;19;20157;-76
2024/01/10 01:37:48;;;;;;;0.87;0.87;;;0.90;99.90;;;;;;7392333;19;20261;-77
2024/01/10 01:40:14;;;;;;;2.30;1.77;;;1.00;99.90;;;;;;7391655;19;20148;-77
2024/01/10 01:42:43;;;;;;;1.20;1.10;;;0.90;99.90;;;;;;7390741;19;20177;-78
2024/01/10 01:45:09;;;;;;;1.07;0.83;;;0.80;99.90;;;;;;7391677;19;20503;-76
2024/01/10 01:47:35;;;;;;;3.50;1.90;;;0.60;99.90;;;;;;7391427;19;20138;-78
2024/01/10 01:50:01;;;;;;;1.90;1.80;;;0.80;99.90;;;;;;7392338;19;20153;-76
2024/01/10 01:52:30;;;;;;;1.53;1.10;;;0.90;99.90;;;;;;7391244;19;20157;-77
2024/01/10 01:54:56;;;;;;;2.00;1.80;;;1.10;99.90;;;;;;7393634;19;20206;-77
2024/01/10 01:57:22;;;;;;;0.77;0.77;;;1.20;99.90;;;;;;7392945;19;20152;-77
2024/01/10 01:59:48;;;;;;;1.60;1.43;;;1.10;99.90;;;;;;7388051;19;20147;-77
2024/01/10 02:02:16;;;;;;;1.60;1.50;;;0.90;99.90;;;;;;7393727;19;20163;-77
2024/01/10 02:04:42;;;;;;;1.27;0.97;;;0.70;99.90;;;;;;7390264;19;20527;-77
2024/01/10 02:07:08;;;;;;;3.13;1.50;;;0.90;99.90;;;;;;7390079;19;20615;-76
2024/01/10 02:09:33;;;;;;;1.40;1.00;;;0.80;99.90;;;;;;7389025;19;20135;-77
2024/01/10 02:11:59;;;;;;;1.80;1.63;;;0.90;99.90;;;;;;7390460;19;20146;-77
2024/01/10 02:14:25;;;;;;;2.70;1.73;;;1.00;99.90;;;;;;7389999;19;20571;-78
2024/01/10 02:16:51;;;;;;;1.10;1.00;;;1.00;99.90;;;;;;7391892;19;20487;-75
2024/01/10 02:19:23;;;;;;;0.70;0.70;;;1.10;99.90;;;;;;7389493;19;20146;-76
2024/01/10 02:21:49;;;;;;;1.13;1.00;;;0.90;99.90;;;;;;7390095;19;20154;-77
2024/01/10 02:24:15;;;;;;;1.23;1.10;;;1.00;99.90;;;;;;7391820;19;20624;-77
2024/01/10 02:26:41;;;;;;;1.30;1.20;;;0.90;99.90;;;;;;7389067;19;20146;-75
2024/01/10 02:29:07;;;;;;;1.93;1.03;;;1.00;99.90;;;;;;7391212;19;20143;-76
2024/01/10 02:31:33;;;;;;;1.83;1.70;;;1.00;99.90;;;;;;7390612;19;20495;-76
2024/01/10 02:33:59;;;;;;;2.27;0.97;;;0.70;99.90;;;;;;7388633;19;20164;-78
2024/01/10 02:36:25;;;;;;;1.50;1.10;;;0.80;99.90;;;;;;7392197;19;20142;-77
2024/01/10 02:38:51;;;;;;;2.13;1.53;;;0.90;99.90;;;;;;7388399;19;20145;-76
2024/01/10 02:41:17;;;;;;;1.30;1.20;;;0.90;99.90;;;;;;7389135;19;20147;-79
2024/01/10 02:43:43;;;;;;;1.93;1.40;;;0.70;99.90;;;;;;7389943;19;20141;-77
2024/01/10 02:46:08;;;;;;;1.07;1.00;;;0.80;99.90;;;;;;7391506;19;20131;-77
2024/01/10 02:48:36;;;;;;;1.67;1.27;;;0.90;99.90;;;;;;7386322;19;20174;-77
2024/01/10 02:51:02;;;;;;;3.87;1.70;;;0.80;99.90;;;;;;7389690;19;20147;-78
2024/01/10 02:53:31;;;;;;;0.70;0.70;;;0.90;99.90;;;;;;7386304;19;20150;-77
2024/01/10 02:55:57;;;;;;;1.10;1.07;;;0.90;99.90;;;;;;7390628;19;20138;-76
2024/01/10 02:58:25;;;;;;;2.30;1.63;;;0.90;99.90;;;;;;7389037;19;20423;-77
2024/01/10 03:00:52;;;;;;;1.03;0.97;;;0.80;99.90;;;;;;7389987;19;20479;-75
2024/01/10 03:03:20;;;;;;;0.80;0.80;;;0.80;99.90;;;;;;7387672;19;20251;-76
2024/01/10 03:05:46;;;;;;;1.47;0.90;;;0.80;99.90;;;;;;7391087;19;20469;-76
2024/01/10 03:08:12;;;;;;;3.60;2.40;;;0.60;99.90;;;;;;7390381;19;20141;-76
2024/01/10 03:10:38;;;;;;;1.00;0.93;;;0.70;99.90;;;;;;7386956;19;20142;-76
2024/01/10 03:13:03;;;;;;;2.43;2.00;;;0.80;99.90;;;;;;7389541;19;20169;-76
2024/01/10 03:15:30;;;;;;;0.77;0.77;;;0.90;99.90;;;;;;7388789;19;20156;-77
2024/01/10 03:17:58;;;;;;;4.13;1.83;;;0.90;99.90;;;;;;7388744;19;20178;-77
2024/01/10 03:20:24;;;;;;;1.73;1.60;;;0.70;99.90;;;;;;7387867;19;20137;-77
2024/01/10 03:22:50;;;;;;;1.57;1.47;;;0.80;99.90;;;;;;7389413;19;20202;-77
2024/01/10 03:25:16;;;;;;;0.90;0.67;;;1.00;99.90;;;;;;7388111;19;20158;-76
2024/01/10 03:27:41;;;;;;;0.97;0.97;;;0.80;99.90;;;;;;7388130;19;20177;-76
2024/01/10 03:30:08;;;;;;;1.23;1.17;;;0.90;99.90;;;;;;7386685;19;20142;-77
2024/01/10 03:32:33;;;;;;;2.53;1.47;;;0.70;99.90;;;;;;7389560;19;20142;-77
2024/01/10 03:34:59;;;;;;;1.67;1.27;;;0.90;99.90;;;;;;7385417;19;20138;-78
2024/01/10 03:37:25;;;;;;;3.23;1.30;;;0.90;99.90;;;;;;7398921;19;20173;-77
2024/01/10 03:39:51;;;;;;;3.10;0.60;;;0.90;99.90;;;;;;7394110;19;20182;-76
2024/01/10 03:42:17;;;;;;;0.70;0.70;;;0.90;99.90;;;;;;7396288;19;20150;-77
2024/01/10 03:44:42;;;;;;;1.70;1.47;;;0.80;99.90;;;;;;7394498;19;20619;-76
2024/01/10 03:47:08;;;;;;;1.40;1.27;;;0.90;99.90;;;;;;7398026;19;20145;-76
2024/01/10 03:49:34;;;;;;;1.20;1.10;;;0.90;99.90;;;;;;7391755;19;20647;-77
2024/01/10 03:51:59;;;;;;;1.47;0.97;;;0.90;99.90;;;;;;7392744;19;20176;-77
2024/01/10 03:54:25;;;;;;;0.97;0.97;;;0.90;99.90;;;;;;7394755;19;20141;-77
2024/01/10 03:56:51;;;;;;;1.40;1.30;;;1.00;99.90;;;;;;7394625;19;20127;-76
2024/01/10 03:59:16;;;;;;;1.90;1.33;;;1.00;99.90;;;;;;7397152;19;20146;-76
2024/01/10 04:01:42;;;;;;;0.80;0.80;;;1.00;99.90;;;;;;7395094;19;20487;-77
2024/01/10 04:04:08;;;;;;;1.27;0.80;;;1.10;99.90;;;;;;7394789;19;20146;-77
2024/01/10 04:06:34;;;;;;;1.33;1.23;;;1.00;99.90;;;;;;7394820;19;20612;-77
2024/01/10 04:09:00;;;;;;;3.00;2.20;;;1.00;99.90;;;;;;7393165;19;20122;-77
2024/01/10 04:11:26;;;;;;;1.80;1.70;;;1.00;99.90;;;;;;7391549;19;20170;-77
2024/01/10 04:13:52;;;;;;;2.10;2.00;;;1.00;99.90;;;;;;7393726;19;20130;-77
2024/01/10 04:16:18;;;;;;;2.00;1.37;;;1.00;99.90;;;;;;7394161;19;20147;-77
2024/01/10 04:18:43;;;;;;;0.40;0.40;;;0.90;99.90;;;;;;7393763;19;20138;-76
2024/01/10 04:21:09;;;;;;;2.47;1.30;;;1.00;99.90;;;;;;7395113;19;20484;-77
2024/01/10 04:23:35;;;;;;;1.23;0.87;;;1.10;99.90;;;;;;7393684;19;20127;-77
2024/01/10 04:26:03;;;;;;;1.40;1.17;;;0.80;99.90;;;;;;7394944;19;20596;-77
2024/01/10 04:28:28;;;;;;;3.63;2.20;;;1.00;99.90;;;;;;7395359;19;20161;-77
2024/01/10 04:30:54;;;;;;;4.10;1.23;;;1.00;99.90;;;;;;7391822;19;20131;-77
2024/01/10 04:33:20;;;;;;;2.17;1.23;;;1.00;99.90;;;;;;7393498;19;20146;-78
2024/01/10 04:35:45;;;;;;;6.97;1.73;;;1.10;99.90;;;;;;7392940;19;20507;-77
2024/01/10 04:38:11;;;;;;;1.33;1.17;;;1.00;99.90;;;;;;7394316;19;20146;-77
2024/01/10 04:40:37;;;;;;;1.60;1.07;;;1.00;99.90;;;;;;7392642;19;20134;-76
2024/01/10 04:43:03;;;;;;;1.77;1.67;;;1.10;99.90;;;;;;7392873;19;20126;-77
2024/01/10 04:45:28;;;;;;;1.10;0.87;;;1.10;99.90;;;;;;7392716;19;20182;-78
2024/01/10 04:47:54;;;;;;;1.87;1.73;;;1.10;99.90;;;;;;7390903;19;20143;-78
2024/01/10 04:50:20;;;;;;;1.33;0.90;;;1.10;99.90;;;;;;7393616;19;20558;-77
2024/01/10 04:52:46;;;;;;;2.03;1.83;;;0.80;99.90;;;;;;7393847;19;20479;-76
2024/01/10 04:55:11;;;;;;;1.40;1.30;;;0.90;99.90;;;;;;7393475;19;20135;-78
2024/01/10 04:57:37;;;;;;;1.63;1.53;;;1.00;99.90;;;;;;7397273;19;20131;-78
2024/01/10 05:00:04;;;;;;;1.87;1.23;;;0.90;99.90;;;;;;7391709;19;20179;-78
2024/01/10 05:02:30;;;;;;;1.40;1.30;;;0.60;99.90;;;;;;7393697;19;20154;-78
2024/01/10 05:04:55;;;;;;;1.23;1.17;;;0.80;99.90;;;;;;7391760;19;20170;-77
2024/01/10 05:07:21;;;;;;;1.97;1.83;;;0.80;99.90;;;;;;7392103;19;20595;-78
2024/01/10 05:09:47;;;;;;;1.50;1.40;;;1.00;99.90;;;;;;7391241;19;20146;-77
2024/01/10 05:12:13;;;;;;;1.07;0.90;;;0.90;99.90;;;;;;7393993;19;20719;-77
2024/01/10 05:14:38;;;;;;;2.17;1.67;;;1.00;99.90;;;;;;7393586;19;20210;-77
2024/01/10 05:17:06;;;;;;;1.57;1.50;;;1.00;99.90;;;;;;7392367;19;20138;-78
2024/01/10 05:19:32;;;;;;;2.00;1.47;;;1.00;99.90;;;;;;7392152;19;20127;-79
2024/01/10 05:21:58;;;;;;;0.63;0.63;;;1.00;99.90;;;;;;7392612;19;20161;-76
2024/01/10 05:24:24;;;;;;;1.93;1.00;;;0.90;99.90;;;;;;7394567;19;20134;-77
2024/01/10 05:26:51;;;;;;;1.90;1.50;;;0.70;99.90;;;;;;7392417;19;20214;-78
2024/01/10 05:29:19;;;;;;;2.80;2.33;;;0.80;99.90;;;;;;7393118;19;20133;-78
2024/01/10 05:31:46;;;;;;;1.50;1.40;;;0.80;99.90;;;;;;7393220;19;20477;-78
2024/01/10 05:34:12;;;;;;;1.17;0.83;;;0.80;99.90;;;;;;7392600;19;20205;-78
2024/01/10 05:36:37;;;;;;;1.47;1.33;;;0.80;99.90;;;;;;7391630;19;20624;-78
2024/01/10 05:39:03;;;;;;;3.10;1.93;;;0.70;99.90;;;;;;7391786;19;20130;-77
2024/01/10 05:41:29;;;;;;;1.60;1.40;;;0.70;99.90;;;;;;7391113;19;20149;-78
2024/01/10 05:43:55;;;;;;;1.30;1.10;;;0.70;99.90;;;;;;7393944;19;20127;-78
2024/01/10 05:46:21;;;;;;;0.80;0.80;;;0.30;99.90;;;;;;7392787;19;20163;-77
2024/01/10 05:48:47;;;;;;;2.00;1.83;;;0.40;99.90;;;;;;7389328;19;20182;-78
2024/01/10 05:51:13;;;;;;;2.40;2.20;;;0.60;99.90;;;;;;7393021;19;20612;-77
2024/01/10 05:53:39;;;;;;;2.93;1.50;;;0.50;99.90;;;;;;7391504;19;20134;-77
2024/01/10 05:56:08;;;;;;;1.53;1.43;;;0.80;99.90;;;;;;7392549;19;20139;-76
2024/01/10 05:58:34;;;;;;;3.30;1.73;;;0.70;99.90;;;;;;7390433;19;20142;-77
2024/01/10 06:00:59;;;;;;;1.90;1.57;;;0.60;99.90;;;;;;7393596;19;20432;-78
2024/01/10 06:03:25;;;;;;;1.20;1.10;;;0.60;99.90;;;;;;7390640;19;20138;-78
2024/01/10 06:05:51;;;;;;;1.70;1.30;;;0.70;99.90;;;;;;7392641;19;20126;-78
2024/01/10 06:08:16;;;;;;;3.43;1.37;;;0.70;99.90;;;;;;7393571;19;20175;-78
2024/01/10 06:10:42;;;;;;;1.20;1.10;;;0.80;99.90;;;;;;7390312;19;20210;-78
2024/01/10 06:13:08;;;;;;;1.73;1.60;;;0.70;99.90;;;;;;7392778;19;20660;-78
2024/01/10 06:15:34;;;;;;;1.53;1.43;;;0.80;99.90;;;;;;7392023;19;20138;-77
2024/01/10 06:17:59;;;;;;;2.40;1.97;;;0.80;99.90;;;;;;7393994;19;20142;-78
2024/01/10 06:20:25;;;;;;;2.63;1.03;;;0.80;99.90;;;;;;7391662;19;20151;-78
2024/01/10 06:22:51;;;;;;;1.47;1.37;;;0.60;99.90;;;;;;7390943;19;20142;-78
2024/01/10 06:25:16;;;;;;;3.17;1.10;;;0.50;99.90;;;;;;7392681;19;20131;-78
2024/01/10 06:27:42;;;;;;;4.17;2.17;;;0.60;99.90;;;;;;7390644;19;20640;-77
2024/01/10 06:30:09;;;;;;;0.60;0.60;;;0.70;99.90;;;;;;7388756;19;20135;-78
2024/01/10 06:32:35;;;;;;;2.97;2.37;;;0.70;99.90;;;;;;7387255;19;20146;-75
2024/01/10 06:35:01;;;;;;;3.70;2.30;;;0.50;99.90;;;;;;7383455;19;20186;-77
2024/01/10 06:37:28;;;;;;;1.50;0.90;;;0.60;99.90;;;;;;7389874;19;20253;-76
2024/01/10 06:39:56;;;;;;;1.07;1.00;;;0.60;99.90;;;;;;7389386;19;20143;-77
2024/01/10 06:42:22;;;;;;;0.90;0.90;;;0.70;99.90;;;;;;7386082;19;20551;-76
2024/01/10 06:44:47;;;;;;;2.63;1.90;;;0.80;99.90;;;;;;7392061;19;20155;-77
2024/01/10 06:47:14;;;;;;;1.87;1.47;;;0.80;99.90;;;;;;7389779;19;20130;-77
2024/01/10 06:49:40;;;;;;;2.27;1.27;;;0.70;99.90;;;;;;7388421;19;20158;-77
2024/01/10 06:52:07;;;;;;;1.93;1.73;;;0.70;99.90;;;;;;7389593;19;20134;-78
2024/01/10 06:54:33;;;;;;;2.17;1.83;;;0.70;99.90;;;;;;7391980;19;20138;-77
2024/01/10 06:56:59;;;;;;;1.67;1.57;;;0.70;99.90;;;;;;7389125;19;20238;-77
2024/01/10 06:59:25;;;;;;;2.00;1.63;;;0.70;99.90;;;;;;7390353;19;20139;-76
2024/01/10 07:01:52;;;;;;;1.87;1.27;;;0.70;99.90;;;;;;7390650;19;20219;-78
2024/01/10 07:04:18;;;;;;;1.80;1.20;;;0.60;99.90;;;;;;7390447;19;20146;-76
2024/01/10 07:06:44;;;;;;;1.90;1.80;;;0.60;99.90;;;;;;7387653;19;20145;-79
2024/01/10 07:09:10;;;;;;;2.30;2.10;;;0.70;99.90;;;;;;7387266;19;20146;-76
2024/01/10 07:11:36;;;;;;;2.00;1.73;;;0.60;99.90;;;;;;7387534;19;20139;-76
2024/01/10 07:14:01;;;;;;;2.60;1.80;;;0.60;99.90;;;;;;7389458;19;20130;-76
2024/01/10 07:16:27;;;;;;;3.20;2.40;;;0.60;99.90;;;;;;7388941;19;20243;-76
2024/01/10 07:18:53;;;;;;;6.93;4.50;;;0.60;99.90;;;;;;7385945;19;20398;-73
2024/01/10 07:21:18;;;;;;;4.93;2.20;;;0.60;99.90;;;;;;7389521;19;20768;-75
2024/01/10 07:23:44;;;;;;;1.67;1.40;;;0.60;99.90;;;;;;7389375;19;20158;-76
2024/01/10 07:26:13;;;;;;;1.23;1.13;;;0.60;99.90;;;;;;7389177;19;20138;-76
2024/01/10 07:28:39;;;;;;;1.47;1.37;;;0.60;99.90;;;;;;7388715;19;20137;-74
2024/01/10 07:31:05;;;;;;;1.23;1.20;;;0.60;99.90;;;;;;7385588;19;20218;-75
2024/01/10 07:33:31;;;;;;;1.03;1.00;;;0.50;99.90;;;;;;7389016;19;20141;-74
2024/01/10 07:35:57;;;;;;;2.20;2.03;;;0.60;99.90;;;;;;7387571;19;20558;-74
2024/01/10 07:38:23;;;;;;;1.07;1.07;;;0.60;99.90;;;;;;7389767;19;20805;-76
2024/01/10 07:40:49;;;;;;;1.63;1.53;;;0.50;99.90;;;;;;7387250;19;20138;-76
2024/01/10 07:43:15;;;;;;;1.50;1.40;;;0.50;99.90;;;;;;7389534;19;20178;-75
2024/01/10 07:45:40;;;;;;;1.50;1.40;;;0.60;99.90;;;;;;7389330;19;20487;-74
2024/01/10 07:48:07;;;;;;;3.10;2.63;;;0.60;99.90;;;;;;7388236;19;20181;-76
2024/01/10 07:50:32;;;;;;;2.37;1.37;;;0.60;99.90;;;;;;7386789;19;20253;-74
2024/01/10 07:52:58;;;;;;;2.17;1.97;;;0.70;99.90;;;;;;7389046;19;20176;-75
2024/01/10 07:55:24;;;;;;;2.03;1.83;;;1.00;99.90;;;;;;7388607;19;20143;-76
2024/01/10 07:57:50;;;;;;;1.53;1.33;;;1.30;99.90;;;;;;7389910;19;20622;-76
2024/01/10 08:00:16;;;;;;;1.40;1.30;;;1.50;99.90;;;;;;7387383;19;20588;-75
2024/01/10 08:02:41;;;;;;;2.30;1.77;;;1.70;99.90;;;;;;7388835;19;20135;-74
2024/01/10 08:05:12;;;;;;;2.10;1.57;;;2.10;99.90;;;;;;7384946;19;20333;-75
2024/01/10 08:07:38;;;;;;;2.20;1.67;;;2.50;99.90;;;;;;7389532;19;20142;-76
2024/01/10 08:10:06;;;;;;;2.17;2.03;;;2.60;99.90;;;;;;7386578;19;20135;-76
2024/01/10 08:12:31;;;;;;;4.37;1.93;;;2.50;99.90;;;;;;7389208;19;20607;-76
2024/01/10 08:14:57;;;;;;;3.53;1.70;;;2.20;99.90;;;;;;7386836;19;20155;-76
2024/01/10 08:17:23;;;;;;;2.10;1.53;;;1.90;99.90;;;;;;7385955;19;20161;-75
2024/01/10 08:19:49;;;;;;;1.60;1.10;;;1.70;99.90;;;;;;7387684;19;20143;-76
2024/01/10 08:22:15;;;;;;;2.23;1.90;;;1.40;99.90;;;;;;7396045;19;20153;-77
2024/01/10 08:24:41;;;;;;;1.57;1.37;;;1.40;99.90;;;;;;7394325;19;20206;-76
2024/01/10 08:27:07;;;;;;;3.63;2.33;;;1.30;99.90;;;;;;7394212;19;20159;-78
2024/01/10 08:29:33;;;;;;;1.37;1.13;;;1.30;99.90;;;;;;7392972;19;20138;-76
2024/01/10 08:31:59;;;;;;;1.77;1.63;;;1.20;99.90;;;;;;7394807;19;20135;-75
2024/01/10 08:34:26;;;;;;;3.13;2.20;;;1.20;99.90;;;;;;7393980;19;20146;-77
2024/01/10 08:36:53;;;;;;;1.67;1.53;;;0.90;99.90;;;;;;7394771;19;20544;-76
2024/01/10 08:39:18;;;;;;;2.37;1.70;;;1.10;99.90;;;;;;7395397;19;20138;-76
2024/01/10 08:41:44;;;;;;;1.60;1.47;;;1.10;99.90;;;;;;7393608;19;20160;-77
2024/01/10 08:44:11;;;;;;;2.67;2.17;;;1.10;99.90;;;;;;7393457;19;20147;-77
2024/01/10 08:46:39;;;;;;;1.83;1.73;;;1.10;99.90;;;;;;7394145;19;20483;-77
2024/01/10 08:49:05;;;;;;;2.30;2.10;;;1.10;99.90;;;;;;7392717;19;20154;-75
2024/01/10 08:51:30;;;;;;;2.10;1.73;;;1.00;99.90;;;;;;7393648;19;20141;-77
2024/01/10 08:53:56;;;;;;;3.67;1.70;;;1.00;99.90;;;;;;7393520;19;20154;-77
2024/01/10 08:56:23;;;;;;;1.97;1.70;;;0.70;99.90;;;;;;7392955;19;20475;-77
2024/01/10 08:58:49;;;;;;;4.27;3.13;;;0.80;99.90;;;;;;7392360;19;20488;-75
2024/01/10 09:01:15;;;;;;;1.53;1.43;;;1.00;99.90;;;;;;7393578;19;20210;-74
2024/01/10 09:03:41;;;;;;;1.97;1.87;;;0.20;99.90;;;;;;7394942;19;20960;-75
2024/01/10 09:06:09;;;;;;;2.23;1.50;;;0.20;99.90;;;;;;7392579;19;20613;-75
2024/01/10 09:08:35;;;;;;;1.20;1.03;;;0.60;99.90;;;;;;7394334;19;20206;-74
2024/01/10 09:11:01;;;;;;;4.67;2.40;;;0.80;99.90;;;;;;7390902;19;20715;-76
2024/01/10 09:13:27;;;;;;;2.80;2.60;;;0.80;99.90;;;;;;7393727;19;20213;-76
2024/01/10 09:15:53;;;;;;;4.57;1.73;;;1.00;99.90;;;;;;7396061;19;20139;-75
2024/01/10 09:18:18;;;;;;;3.43;2.27;;;1.10;99.90;;;;;;7395638;19;20162;-74
2024/01/10 09:20:44;;;;;;;3.70;2.50;;;1.00;99.90;;;;;;7393980;19;20153;-75
2024/01/10 09:23:10;;;;;;;4.57;2.10;;;1.00;99.90;;;;;;7392563;19;20173;-77
2024/01/10 09:25:36;;;;;;;2.43;1.93;;;1.20;99.90;;;;;;7393872;19;20142;-75
2024/01/10 09:28:04;;;;;;;1.67;1.20;;;1.10;99.90;;;;;;7394774;19;20158;-75
2024/01/10 09:30:30;;;;;;;2.20;1.67;;;0.90;99.90;;;;;;7391196;19;20154;-75
2024/01/10 09:32:56;;;;;;;2.90;2.10;;;0.40;99.90;;;;;;7391335;19;20138;-75
2024/01/10 09:35:22;;;;;;;1.63;1.53;;;0.60;99.90;;;;;;7391795;19;20592;-76
2024/01/10 09:37:49;;;;;;;3.83;2.73;;;1.00;99.90;;;;;;7392172;19;20161;-76
2024/01/10 09:40:16;;;;;;;2.67;2.17;;;1.20;99.90;;;;;;7393322;19;20130;-75
2024/01/10 09:42:46;;;;;;;2.40;2.07;;;1.20;99.90;;;;;;7393754;19;20134;-74
2024/01/10 09:45:12;;;;;;;4.57;3.57;;;1.30;99.90;;;;;;7391679;19;20147;-75
2024/01/10 09:47:40;;;;;;;1.77;1.67;;;1.30;99.90;;;;;;7390757;19;20184;-76
2024/01/10 09:50:07;;;;;;;2.50;1.83;;;1.20;99.90;;;;;;7391654;19;20568;-75
2024/01/10 09:52:47;;;;;;;1.80;1.70;;;1.30;99.90;;;;;;7394642;19;20131;-77
2024/01/10 09:55:16;;;;;;;2.97;1.90;;;1.40;99.90;;;;;;7395747;19;20127;-76
2024/01/10 09:57:42;;;;;;;3.00;2.73;;;1.40;99.90;;;;;;7393352;19;20615;-76
2024/01/10 10:00:11;;;;;;;4.53;2.10;;;1.40;99.90;;;;;;7392648;19;20134;-75
2024/01/10 10:02:39;;;;;;;1.90;1.80;;;1.50;99.90;;;;;;7392093;19;20150;-75
2024/01/10 10:05:16;;;;;;;3.53;2.10;;;1.60;99.90;;;;;;7389297;19;20178;-76
2024/01/10 10:07:48;;;;;;;7.23;2.40;;;1.70;99.90;;;;;;7393129;19;20142;-76
2024/01/10 10:10:15;;;;;;;1.47;1.17;;;1.70;99.90;;;;;;7391168;19;20145;-75
2024/01/10 10:12:48;;;;;;;4.40;3.60;;;1.80;99.90;;;;;;7391869;19;20141;-76
2024/01/10 10:15:19;;;;;;;2.33;2.10;;;1.80;99.90;;;;;;7390812;19;20147;-76
2024/01/10 10:17:49;;;;;;;2.13;1.53;;;1.80;99.90;;;;;;7389276;19;20139;-78
2024/01/10 10:20:23;;;;;;;2.23;2.00;;;1.90;99.90;;;;;;7390444;19;20130;-76
2024/01/10 10:23:01;;;;;;;2.00;1.87;;;1.90;99.90;;;;;;7391217;19;20142;-76
2024/01/10 10:25:31;;;;;;;1.40;1.40;;;1.90;99.90;;;;;;7392605;19;20461;-76
2024/01/10 10:27:56;;;;;;;1.20;1.17;;;1.90;99.90;;;;;;7392571;19;20138;-77
2024/01/10 10:30:24;;;;;;;2.20;1.90;;;2.00;99.90;;;;;;7390184;19;20247;-75
2024/01/10 10:32:50;;;;;;;2.30;2.10;;;2.10;99.90;;;;;;7390376;19;20147;-76
2024/01/10 10:35:18;;;;;;;1.97;1.73;;;2.20;99.90;;;;;;7390591;19;20163;-76
2024/01/10 10:37:43;;;;;;;1.73;1.63;;;2.20;99.90;;;;;;7391078;19;20138;-75
2024/01/10 10:40:15;;;;;;;1.73;1.63;;;2.10;99.90;;;;;;7387241;19;20177;-75
2024/01/10 10:42:46;;;;;;;2.90;2.23;;;2.10;99.90;;;;;;7393692;19;20135;-78
2024/01/10 10:45:18;;;;;;;2.00;1.90;;;2.20;99.90;;;;;;7389431;19;20149;-81
2024/01/10 10:47:48;;;;;;;3.17;1.83;;;2.30;99.90;;;;;;7390644;19;20160;-77
2024/01/10 10:50:22;;;;;;;2.33;1.57;;;2.40;99.90;;;;;;7389695;19;20174;-77
2024/01/10 10:52:52;;;;;;;3.87;3.43;;;2.40;99.90;;;;;;7391850;19;20138;-77
2024/01/10 10:55:19;;;;;;;2.27;2.07;;;2.40;99.90;;;;;;7392326;19;20130;-77
2024/01/10 10:57:46;;;;;;;2.23;1.73;;;2.50;99.90;;;;;;7396172;19;20213;-79
2024/01/10 11:00:19;;;;;;;6.23;4.33;;;2.50;99.90;;;;;;7390818;19;20144;-76
2024/01/10 11:02:46;;;;;;;2.80;1.70;;;2.60;99.90;;;;;;7394764;19;20141;-77
2024/01/10 11:05:13;;;;;;;3.37;2.23;;;2.40;99.90;;;;;;7391475;19;20146;-74
2024/01/10 11:07:41;;;;;;;2.70;2.50;;;2.00;99.90;;;;;;7389832;19;20180;-76
2024/01/10 11:10:14;;;;;;;2.67;2.37;;;2.30;99.90;;;;;;7391997;19;20154;-77
2024/01/10 11:13:10;;;;;;;3.40;3.10;;;2.40;99.90;;;;;;7393989;19;20123;-76
2024/01/10 11:15:57;;;;;;;2.57;2.37;;;2.60;99.90;;;;;;7392571;19;20156;-77
2024/01/10 11:18:47;;;;;;;2.53;2.23;;;2.80;99.90;;;;;;7389866;19;20143;-78
2024/01/10 11:21:33;;;;;;;2.37;2.00;;;2.60;99.90;;;;;;7389894;19;20166;-78
2024/01/10 11:24:01;;;;;;;3.33;1.80;;;2.50;99.90;;;;;;7390311;19;20572;-84
2024/01/10 11:26:27;;;;;;;2.13;1.80;;;2.60;99.90;;;;;;7389993;19;20142;-77
2024/01/10 11:28:53;;;;;;;3.43;2.63;;;2.50;99.90;;;;;;7389975;19;20148;-78
2024/01/10 11:31:30;;;;;;;4.57;3.40;;;2.80;99.90;;;;;;7388323;19;20161;-77
2024/01/10 11:34:01;;;;;;;3.23;2.73;;;2.80;99.90;;;;;;7388770;19;20173;-77
2024/01/10 11:36:27;;;;;;;2.53;2.30;;;2.30;99.90;;;;;;7389069;19;20145;-78
2024/01/10 11:38:59;;;;;;;4.97;2.77;;;2.60;99.90;;;;;;7380230;19;20130;-76
2024/01/10 11:41:30;;;;;;;6.80;3.23;;;2.60;99.90;;;;;;7387319;19;21495;-75
2024/01/10 11:44:11;;;;;;;3.57;2.60;;;2.90;99.90;;;;;;7388618;19;20158;-75
2024/01/10 11:46:49;;;;;;;3.53;2.80;;;3.10;99.90;;;;;;7386961;19;20525;-74
2024/01/10 11:49:19;;;;;;;6.07;3.63;;;3.20;99.90;;;;;;7386485;19;20678;-74
2024/01/10 11:52:00;;;;;;;4.23;2.50;;;3.20;99.90;;;;;;7386523;19;20829;-74
2024/01/10 11:54:42;;;;;;;6.73;3.33;;;3.30;99.90;;;;;;7388754;19;20149;-75
2024/01/10 11:57:26;;;;;;;2.80;2.60;;;3.10;99.90;;;;;;7400886;19;20137;-76
2024/01/10 11:59:59;;;;;;;2.23;2.03;;;3.20;99.90;;;;;;7396637;19;20131;-75
2024/01/10 12:02:32;;;;;;;4.97;3.37;;;2.80;99.90;;;;;;7396120;19;20146;-76
2024/01/10 12:04:58;;;;;;;2.50;2.20;;;3.10;99.90;;;;;;7394201;19;20171;-77
2024/01/10 12:07:25;;;;;;;3.93;3.43;;;3.30;99.90;;;;;;7394386;19;20595;-76
2024/01/10 12:09:51;;;;;;;3.50;3.20;;;3.40;99.90;;;;;;7393370;19;20785;-77
2024/01/10 12:12:17;;;;;;;3.87;2.57;;;3.30;99.90;;;;;;7392205;19;20220;-77
2024/01/10 12:14:44;;;;;;;3.67;2.57;;;3.50;99.90;;;;;;7395898;19;20154;-78
2024/01/10 12:17:12;;;;;;;2.50;2.30;;;3.30;99.90;;;;;;7396655;19;20155;-76
2024/01/10 12:19:44;;;;;;;3.77;2.87;;;3.20;99.90;;;;;;7391579;19;20141;-76
2024/01/10 12:22:10;;;;;;;3.27;2.43;;;3.40;99.90;;;;;;7393552;19;20154;-76
2024/01/10 12:24:46;;;;;;;2.77;2.50;;;3.50;99.90;;;;;;7392753;19;20134;-76
2024/01/10 12:27:12;;;;;;;4.53;2.70;;;3.60;99.90;;;;;;7393840;19;20138;-75
2024/01/10 12:29:38;;;;;;;3.73;2.83;;;3.70;99.90;;;;;;7392366;19;20131;-76
2024/01/10 12:32:04;;;;;;;2.97;2.57;;;3.70;99.90;;;;;;7394140;19;20146;-77
2024/01/10 12:34:30;;;;;;;3.23;2.73;;;3.80;99.90;;;;;;7395775;19;20547;-75
2024/01/10 12:36:56;;;;;;;6.40;2.90;;;3.80;99.90;;;;;;7396978;19;20164;-77
2024/01/10 12:39:23;;;;;;;4.00;3.33;;;3.80;99.90;;;;;;7392876;19;20147;-75
2024/01/10 12:41:50;;;;;;;3.20;2.33;;;3.80;99.90;;;;;;7392963;19;20153;-75
2024/01/10 12:44:16;;;;;;;5.63;3.67;;;3.90;99.90;;;;;;7393487;19;20131;-75
2024/01/10 12:46:52;;;;;;;3.37;2.33;;;3.60;99.90;;;;;;7396305;19;20134;-76
2024/01/10 12:49:18;;;;;;;3.20;2.40;;;3.90;99.90;;;;;;7391948;19;20154;-76
2024/01/10 12:51:47;;;;;;;3.90;3.37;;;3.80;99.90;;;;;;7388013;19;20139;-76
2024/01/10 12:54:13;;;;;;;2.57;2.37;;;3.90;99.90;;;;;;7393539;19;20177;-77
2024/01/10 12:56:39;;;;;;;4.30;2.77;;;3.50;99.90;;;;;;7391659;19;20147;-76